createdAt,value
2018-04-19T00:02:25.538Z,15.40
2018-04-19T00:04:51.820Z,15.50
2018-04-19T00:07:18.127Z,15.50
2018-04-19T00:09:45.181Z,15.20
2018-04-19T00:12:11.501Z,15.20
2018-04-19T00:14:37.775Z,15.20
2018-04-19T00:17:04.080Z,15.20
2018-04-19T00:19:31.158Z,15.10
2018-04-19T00:21:57.381Z,15.10
2018-04-19T00:24:23.628Z,15.10
2018-04-19T00:26:49.910Z,15.20
2018-04-19T00:29:16.191Z,15.30
2018-04-19T00:31:44.536Z,15.30
2018-04-19T00:34:10.793Z,15.30
2018-04-19T00:36:37.016Z,15.40
2018-04-19T00:39:03.302Z,15.20
2018-04-19T00:41:29.575Z,15.20
2018-04-19T00:43:55.839Z,15.20
2018-04-19T00:46:22.117Z,15.00
2018-04-19T00:48:48.423Z,15.00
2018-04-19T00:51:14.661Z,15.10
2018-04-19T00:53:41.641Z,15.20
2018-04-19T00:56:07.945Z,15.10
2018-04-19T00:58:34.966Z,15.20
2018-04-19T01:01:01.233Z,15.20
2018-04-19T01:03:27.473Z,15.20
2018-04-19T01:05:53.780Z,15.20
2018-04-19T01:08:20.051Z,15.20
2018-04-19T01:10:46.293Z,15.10
2018-04-19T01:13:12.596Z,15.10
2018-04-19T01:15:38.892Z,15.10
2018-04-19T01:18:05.885Z,15.00
2018-04-19T01:20:32.181Z,15.00
2018-04-19T01:22:58.475Z,15.00
2018-04-19T01:25:24.753Z,15.00
2018-04-19T01:27:51.037Z,15.00
2018-04-19T01:30:17.265Z,14.80
2018-04-19T01:32:43.528Z,14.50
2018-04-19T01:35:09.785Z,14.40
2018-04-19T01:37:36.004Z,14.50
2018-04-19T01:40:02.279Z,14.30
2018-04-19T01:42:28.517Z,14.30
2018-04-19T01:44:55.529Z,14.30
2018-04-19T01:47:21.829Z,14.30
2018-04-19T01:49:48.081Z,14.40
2018-04-19T01:52:14.345Z,14.40
2018-04-19T01:54:40.626Z,14.50
2018-04-19T01:57:06.849Z,14.40
2018-04-19T01:59:33.125Z,14.40
2018-04-19T02:01:59.349Z,14.40
2018-04-19T02:04:25.662Z,14.30
2018-04-19T02:06:51.923Z,14.30
2018-04-19T02:09:18.952Z,14.20
2018-04-19T02:11:45.264Z,14.20
2018-04-19T02:14:11.578Z,14.20
2018-04-19T02:16:37.823Z,14.20
2018-04-19T02:19:04.136Z,14.20
2018-04-19T02:21:30.404Z,14.10
2018-04-19T02:23:56.609Z,13.50
2018-04-19T02:26:22.854Z,13.50
2018-04-19T02:28:49.134Z,13.60
2018-04-19T02:31:16.474Z,13.60
2018-04-19T02:33:42.769Z,13.70
2018-04-19T02:36:09.080Z,13.70
2018-04-19T02:38:35.378Z,13.80
2018-04-19T02:41:01.591Z,13.80
2018-04-19T02:43:27.831Z,13.60
2018-04-19T02:45:54.054Z,13.60
2018-04-19T02:48:20.278Z,13.60
2018-04-19T02:50:46.555Z,13.60
2018-04-19T02:53:12.863Z,13.60
2018-04-19T02:55:39.132Z,13.60
2018-04-19T02:58:05.439Z,13.60
2018-04-19T03:00:31.708Z,13.60
2018-04-19T03:02:58.745Z,13.40
2018-04-19T03:05:25.079Z,13.40
2018-04-19T03:07:52.069Z,13.40
2018-04-19T03:10:18.356Z,13.40
2018-04-19T03:12:45.379Z,13.30
2018-04-19T03:15:11.657Z,13.30
2018-04-19T03:17:37.933Z,13.30
2018-04-19T03:20:04.201Z,13.10
2018-04-19T03:22:30.445Z,13.10
2018-04-19T03:24:56.793Z,13.10
2018-04-19T03:27:23.117Z,13.00
2018-04-19T03:29:49.362Z,12.80
2018-04-19T03:32:15.667Z,12.70
2018-04-19T03:34:41.932Z,12.50
2018-04-19T03:37:08.230Z,12.40
2018-04-19T03:39:34.522Z,12.50
2018-04-19T03:42:01.500Z,12.70
2018-04-19T03:44:27.757Z,12.60
2018-04-19T03:46:54.003Z,12.70
2018-04-19T03:49:20.293Z,12.70
2018-04-19T03:51:46.540Z,12.50
2018-04-19T03:54:12.801Z,12.50
2018-04-19T03:56:39.106Z,12.50
2018-04-19T03:59:26.096Z,12.50
2018-04-19T04:01:52.423Z,12.30
2018-04-19T04:04:18.670Z,12.30
2018-04-19T04:06:44.894Z,12.10
2018-04-19T04:09:11.190Z,12.10
2018-04-19T04:11:37.478Z,12.30
2018-04-19T04:14:03.729Z,12.40
2018-04-19T04:16:42.970Z,12.50
2018-04-19T04:19:22.431Z,12.50
2018-04-19T04:22:01.156Z,12.40
2018-04-19T04:24:27.435Z,12.40
2018-04-19T04:26:53.671Z,12.60
2018-04-19T04:29:20.682Z,12.60
2018-04-19T04:31:46.930Z,12.60
2018-04-19T04:34:13.172Z,12.70
2018-04-19T04:36:40.174Z,12.60
2018-04-19T04:39:06.457Z,12.60
2018-04-19T04:41:33.514Z,12.60
2018-04-19T04:44:00.512Z,12.60
2018-04-19T04:46:26.773Z,12.60
2018-04-19T04:48:52.975Z,12.60
2018-04-19T04:51:19.217Z,12.60
2018-04-19T04:53:45.491Z,12.50
2018-04-19T04:56:11.741Z,12.50
2018-04-19T04:58:38.020Z,12.40
2018-04-19T05:01:04.290Z,12.40
2018-04-19T05:03:30.534Z,12.30
2018-04-19T05:05:56.865Z,12.30
2018-04-19T05:08:23.125Z,12.40
2018-04-19T05:10:49.378Z,12.30
2018-04-19T05:13:15.638Z,12.30
2018-04-19T05:15:41.893Z,12.30
2018-04-19T05:18:08.162Z,12.30
2018-04-19T05:20:34.406Z,12.30
2018-04-19T05:23:00.689Z,12.40
2018-04-19T05:25:26.934Z,12.30
2018-04-19T05:27:53.140Z,12.40
2018-04-19T05:30:19.495Z,12.40
2018-04-19T05:32:46.463Z,12.40
2018-04-19T05:35:12.794Z,12.40
2018-04-19T05:37:39.080Z,12.50
2018-04-19T05:40:05.310Z,12.60
2018-04-19T05:42:31.572Z,12.60
2018-04-19T05:44:57.861Z,12.70
2018-04-19T05:47:24.091Z,12.70
2018-04-19T05:49:50.331Z,12.70
2018-04-19T05:52:16.596Z,12.80
2018-04-19T05:54:42.835Z,12.70
2018-04-19T05:57:09.127Z,12.60
2018-04-19T05:59:35.386Z,12.60
2018-04-19T06:02:01.642Z,12.60
2018-04-19T06:04:27.954Z,12.60
2018-04-19T06:06:54.259Z,12.60
2018-04-19T06:09:20.546Z,12.60
2018-04-19T06:11:46.773Z,12.60
2018-04-19T06:14:12.998Z,12.70
2018-04-19T06:16:39.256Z,12.70
2018-04-19T06:19:06.276Z,12.70
2018-04-19T06:21:32.528Z,12.70
2018-04-19T06:23:58.809Z,12.80
2018-04-19T06:26:25.062Z,12.80
2018-04-19T06:28:51.293Z,12.90
2018-04-19T06:31:17.590Z,12.90
2018-04-19T06:33:43.834Z,13.00
2018-04-19T06:36:10.092Z,13.00
2018-04-19T06:38:36.344Z,13.00
2018-04-19T06:41:03.333Z,13.10
2018-04-19T06:43:29.581Z,13.10
2018-04-19T06:45:55.840Z,13.20
2018-04-19T06:48:22.813Z,13.30
2018-04-19T06:50:49.151Z,13.30
2018-04-19T06:53:15.409Z,13.40
2018-04-19T06:55:41.649Z,13.50
2018-04-19T06:58:07.877Z,13.60
2018-04-19T07:00:34.138Z,13.70
2018-04-19T07:03:01.113Z,13.80
2018-04-19T07:05:27.350Z,13.80
2018-04-19T07:07:53.648Z,13.90
2018-04-19T07:10:19.941Z,13.90
2018-04-19T07:12:46.162Z,14.00
2018-04-19T07:15:12.474Z,14.00
2018-04-19T07:17:38.694Z,14.20
2018-04-19T07:20:04.971Z,14.20
2018-04-19T07:22:32.009Z,14.40
2018-04-19T07:24:58.237Z,14.40
2018-04-19T07:27:24.505Z,14.40
2018-04-19T07:29:50.745Z,14.50
2018-04-19T07:32:17.024Z,14.70
2018-04-19T07:34:43.241Z,14.80
2018-04-19T07:37:09.486Z,14.90
2018-04-19T07:39:35.787Z,14.90
2018-04-19T07:42:02.046Z,15.00
2018-04-19T07:44:28.264Z,15.00
2018-04-19T07:46:54.556Z,15.10
2018-04-19T07:49:20.781Z,15.20
2018-04-19T07:51:47.032Z,15.40
2018-04-19T07:54:13.320Z,15.50
2018-04-19T07:56:39.518Z,15.60
2018-04-19T07:59:05.877Z,15.70
2018-04-19T08:01:32.202Z,15.70
2018-04-19T08:03:58.497Z,15.80
2018-04-19T08:06:24.734Z,16.00
2018-04-19T08:08:51.761Z,16.00
2018-04-19T08:11:18.080Z,16.00
2018-04-19T08:13:44.343Z,16.10
2018-04-19T08:16:11.318Z,16.30
2018-04-19T08:18:37.550Z,16.20
2018-04-19T08:21:03.874Z,16.40
2018-04-19T08:23:30.246Z,16.50
2018-04-19T08:25:56.515Z,16.70
2018-04-19T08:28:23.462Z,16.80
2018-04-19T08:30:50.466Z,16.80
2018-04-19T08:33:16.742Z,16.80
2018-04-19T08:35:43.737Z,16.90
2018-04-19T08:38:10.021Z,16.80
2018-04-19T08:40:36.297Z,17.10
2018-04-19T08:43:02.578Z,17.10
2018-04-19T08:45:28.883Z,17.20
2018-04-19T08:47:55.141Z,17.20
2018-04-19T08:50:21.454Z,17.20
2018-04-19T08:52:48.486Z,17.40
2018-04-19T08:55:14.721Z,17.40
2018-04-19T08:57:41.007Z,17.50
2018-04-19T09:00:07.228Z,17.50
2018-04-19T09:02:33.430Z,17.60
2018-04-19T09:04:59.662Z,17.70
2018-04-19T09:07:25.916Z,17.70
2018-04-19T09:09:52.186Z,17.90
2018-04-19T09:12:18.477Z,18.00
2018-04-19T09:14:44.774Z,18.10
2018-04-19T09:17:11.763Z,18.30
2018-04-19T09:19:38.012Z,18.30
2018-04-19T09:22:04.315Z,18.40
2018-04-19T09:24:30.578Z,18.60
2018-04-19T09:26:56.799Z,18.60
2018-04-19T09:29:23.018Z,18.70
2018-04-19T09:31:49.292Z,18.70
2018-04-19T09:34:15.559Z,18.90
2018-04-19T09:36:41.792Z,19.00
2018-04-19T09:39:08.067Z,19.00
2018-04-19T09:41:35.027Z,19.20
2018-04-19T09:44:01.243Z,19.10
2018-04-19T09:46:28.238Z,19.50
2018-04-19T09:48:54.473Z,19.40
2018-04-19T09:51:21.780Z,19.60
2018-04-19T09:53:48.108Z,19.60
2018-04-19T09:56:14.331Z,19.70
2018-04-19T09:58:40.606Z,19.90
2018-04-19T10:01:08.684Z,19.90
2018-04-19T10:03:40.866Z,20.00
2018-04-19T10:06:07.099Z,20.00
2018-04-19T10:08:33.317Z,20.00
2018-04-19T10:10:59.568Z,20.10
2018-04-19T10:13:25.809Z,20.20
2018-04-19T10:15:52.789Z,20.40
2018-04-19T10:18:19.198Z,20.40
2018-04-19T10:20:45.419Z,20.50
2018-04-19T10:23:11.747Z,20.50
2018-04-19T10:25:38.707Z,20.80
2018-04-19T10:28:04.911Z,20.70
2018-04-19T10:30:31.962Z,21.00
2018-04-19T10:32:58.946Z,21.00
2018-04-19T10:35:25.215Z,21.00
2018-04-19T10:37:51.484Z,21.20
2018-04-19T10:40:17.755Z,21.30
2018-04-19T10:42:43.986Z,21.40
2018-04-19T10:45:10.258Z,21.60
2018-04-19T10:47:37.259Z,21.90
2018-04-19T10:50:03.528Z,21.80
2018-04-19T10:52:30.507Z,21.90
2018-04-19T10:54:56.785Z,21.80
2018-04-19T10:57:23.019Z,21.90
2018-04-19T10:59:50.034Z,21.80
2018-04-19T11:02:16.254Z,21.80
2018-04-19T11:04:42.458Z,21.90
2018-04-19T11:07:08.746Z,22.00
2018-04-19T11:09:35.790Z,22.30
2018-04-19T11:12:02.026Z,22.20
2018-04-19T11:14:29.057Z,22.50
2018-04-19T11:16:55.278Z,22.50
2018-04-19T11:19:21.550Z,22.50
2018-04-19T11:21:47.810Z,22.60
2018-04-19T11:24:14.065Z,22.50
2018-04-19T11:26:40.345Z,22.60
2018-04-19T11:29:06.619Z,22.60
2018-04-19T11:31:32.969Z,22.70
2018-04-19T11:33:59.218Z,22.70
2018-04-19T11:36:25.473Z,22.80
2018-04-19T11:38:51.712Z,22.70
2018-04-19T11:41:17.968Z,22.80
2018-04-19T11:43:44.233Z,22.80
2018-04-19T11:46:11.203Z,23.00
2018-04-19T11:48:37.501Z,22.90
2018-04-19T11:51:04.492Z,23.10
2018-04-19T11:53:30.776Z,23.00
2018-04-19T11:55:57.825Z,23.20
2018-04-19T11:58:24.076Z,23.10
2018-04-19T12:00:50.321Z,23.30
2018-04-19T12:03:16.546Z,23.50
2018-04-19T12:05:42.817Z,23.50
2018-04-19T12:08:09.044Z,23.60
2018-04-19T12:10:35.290Z,23.50
2018-04-19T12:13:02.279Z,23.60
2018-04-19T12:15:28.531Z,23.50
2018-04-19T12:17:54.767Z,23.50
2018-04-19T12:20:21.022Z,23.60
2018-04-19T12:22:48.039Z,23.70
2018-04-19T12:25:14.294Z,23.70
2018-04-19T12:27:40.568Z,23.80
2018-04-19T12:30:06.839Z,23.90
2018-04-19T12:32:33.140Z,23.90
2018-04-19T12:34:59.423Z,23.90
2018-04-19T12:37:26.431Z,24.00
2018-04-19T12:39:52.646Z,24.00
2018-04-19T12:42:18.905Z,24.10
2018-04-19T12:44:45.125Z,24.20
2018-04-19T12:47:11.403Z,24.20
2018-04-19T12:49:37.695Z,24.20
2018-04-19T12:52:03.892Z,24.30
2018-04-19T12:54:30.320Z,24.30
2018-04-19T12:56:56.566Z,24.20
2018-04-19T12:59:22.859Z,24.20
2018-04-19T13:01:49.095Z,24.20
2018-04-19T13:04:15.335Z,24.20
2018-04-19T13:06:41.571Z,24.30
2018-04-19T13:09:07.847Z,24.50
2018-04-19T13:11:34.081Z,24.70
2018-04-19T13:14:00.334Z,24.80
2018-04-19T13:16:26.592Z,24.80
2018-04-19T13:18:52.835Z,24.70
2018-04-19T13:21:19.027Z,24.70
2018-04-19T13:23:45.289Z,25.10
2018-04-19T13:26:11.533Z,25.20
2018-04-19T13:28:38.502Z,25.10
2018-04-19T13:31:04.716Z,25.00
2018-04-19T13:33:30.995Z,25.00
2018-04-19T13:35:57.258Z,24.90
2018-04-19T13:38:23.530Z,24.90
2018-04-19T13:40:49.795Z,24.90
2018-04-19T13:43:16.043Z,25.00
2018-04-19T13:45:42.267Z,25.00
2018-04-19T13:48:08.547Z,25.00
2018-04-19T13:50:35.133Z,25.00
2018-04-19T13:53:01.379Z,25.00
2018-04-19T13:55:28.297Z,25.30
2018-04-19T13:57:54.599Z,25.20
2018-04-19T14:00:20.890Z,25.30
2018-04-19T14:02:47.127Z,25.30
2018-04-19T14:05:13.364Z,25.30
2018-04-19T14:07:39.651Z,25.20
2018-04-19T14:10:06.027Z,25.10
2018-04-19T14:12:32.266Z,25.20
2018-04-19T14:14:58.527Z,25.20
2018-04-19T14:17:24.786Z,25.20
2018-04-19T14:19:51.814Z,25.30
2018-04-19T14:22:18.051Z,25.20
2018-04-19T14:24:45.039Z,25.30
2018-04-19T14:27:11.321Z,25.20
2018-04-19T14:29:38.303Z,25.30
2018-04-19T14:32:04.519Z,25.30
2018-04-19T14:34:30.791Z,25.30
2018-04-19T14:36:57.024Z,25.30
2018-04-19T14:39:23.287Z,25.30
2018-04-19T14:41:50.303Z,25.40
2018-04-19T14:44:16.543Z,25.30
2018-04-19T14:46:42.770Z,25.30
2018-04-19T14:49:09.074Z,25.30
2018-04-19T14:51:35.323Z,25.30
2018-04-19T14:54:01.511Z,25.30
2018-04-19T14:56:27.727Z,25.30
2018-04-19T14:58:53.992Z,25.40
2018-04-19T15:01:20.235Z,25.40
2018-04-19T15:03:46.502Z,25.40
2018-04-19T15:06:12.796Z,25.50
2018-04-19T15:08:39.135Z,25.50
2018-04-19T15:11:05.382Z,25.50
2018-04-19T15:13:32.384Z,25.40
2018-04-19T15:15:58.672Z,25.30
2018-04-19T15:18:24.959Z,25.40
2018-04-19T15:20:51.232Z,25.40
2018-04-19T15:23:17.508Z,25.40
2018-04-19T15:25:43.802Z,25.40
2018-04-19T15:28:10.068Z,25.40
2018-04-19T15:30:36.303Z,25.50
2018-04-19T15:33:02.571Z,25.70
2018-04-19T15:35:29.148Z,25.60
2018-04-19T15:37:55.367Z,25.70
2018-04-19T15:40:21.664Z,25.60
2018-04-19T15:42:47.900Z,25.60
2018-04-19T15:45:14.124Z,25.60
2018-04-19T15:47:40.486Z,25.70
2018-04-19T15:50:06.749Z,25.60
2018-04-19T15:52:33.014Z,25.60
2018-04-19T15:54:59.264Z,25.60
2018-04-19T15:57:25.498Z,25.70
2018-04-19T15:59:51.771Z,25.70
2018-04-19T16:02:18.747Z,25.60
2018-04-19T16:04:45.083Z,25.60
2018-04-19T16:07:11.361Z,25.60
2018-04-19T16:09:37.707Z,25.60
2018-04-19T16:12:04.765Z,25.70
2018-04-19T16:14:31.740Z,25.70
2018-04-19T16:16:57.999Z,25.70
2018-04-19T16:19:24.291Z,25.70
2018-04-19T16:21:50.554Z,25.70
2018-04-19T16:24:16.799Z,25.70
2018-04-19T16:26:43.029Z,25.70
2018-04-19T16:29:09.367Z,25.70
2018-04-19T16:31:36.372Z,25.80
2018-04-19T16:34:02.693Z,25.80
2018-04-19T16:36:28.979Z,25.80
2018-04-19T16:38:55.957Z,25.80
2018-04-19T16:41:22.205Z,25.70
2018-04-19T16:43:48.513Z,25.80
2018-04-19T16:46:14.736Z,25.90
2018-04-19T16:48:41.036Z,25.80
2018-04-19T16:51:08.018Z,25.80
2018-04-19T16:53:34.296Z,25.70
2018-04-19T16:56:00.573Z,25.80
2018-04-19T16:58:26.872Z,25.80
2018-04-19T17:00:53.203Z,25.80
2018-04-19T17:03:19.396Z,25.80
2018-04-19T17:05:45.632Z,25.70
2018-04-19T17:08:11.936Z,25.70
2018-04-19T17:10:38.172Z,25.70
2018-04-19T17:13:04.423Z,25.70
2018-04-19T17:15:30.732Z,25.60
2018-04-19T17:17:56.965Z,25.60
2018-04-19T17:20:23.236Z,25.60
2018-04-19T17:22:51.333Z,25.60
2018-04-19T17:25:17.553Z,25.60
2018-04-19T17:27:43.789Z,25.60
2018-04-19T17:30:10.076Z,25.50
2018-04-19T17:32:36.311Z,25.50
2018-04-19T17:35:02.516Z,25.40
2018-04-19T17:37:28.797Z,25.40
2018-04-19T17:39:55.054Z,25.40
2018-04-19T17:42:21.389Z,25.30
2018-04-19T17:44:47.590Z,25.30
2018-04-19T17:47:13.802Z,25.30
2018-04-19T17:49:40.054Z,25.20
2018-04-19T17:52:06.350Z,25.20
2018-04-19T17:54:33.312Z,25.20
2018-04-19T17:56:59.599Z,25.10
2018-04-19T17:59:25.820Z,25.20
2018-04-19T18:01:52.089Z,25.10
2018-04-19T18:04:18.427Z,25.10
2018-04-19T18:06:44.704Z,25.00
2018-04-19T18:09:10.963Z,25.00
2018-04-19T18:11:37.954Z,24.90
2018-04-19T18:14:04.185Z,24.90
2018-04-19T18:16:30.449Z,24.80
2018-04-19T18:18:56.717Z,24.80
2018-04-19T18:21:22.997Z,24.70
2018-04-19T18:23:49.270Z,24.60
2018-04-19T18:26:15.573Z,24.50
2018-04-19T18:28:41.813Z,24.50
2018-04-19T18:31:08.132Z,24.30
2018-04-19T18:33:34.337Z,24.30
2018-04-19T18:36:00.589Z,24.20
2018-04-19T18:38:26.885Z,24.10
2018-04-19T18:40:53.118Z,24.00
2018-04-19T18:43:19.326Z,23.90
2018-04-19T18:45:45.646Z,23.80
2018-04-19T18:48:11.921Z,23.70
2018-04-19T18:50:38.151Z,23.60
2018-04-19T18:53:04.403Z,23.50
2018-04-19T18:55:31.399Z,23.40
2018-04-19T18:57:57.685Z,23.30
2018-04-19T19:00:24.698Z,23.30
2018-04-19T19:02:50.935Z,23.20
2018-04-19T19:05:17.163Z,23.20
2018-04-19T19:07:43.550Z,23.10
2018-04-19T19:10:09.766Z,23.10
2018-04-19T19:12:35.985Z,23.00
2018-04-19T19:15:02.258Z,22.90
2018-04-19T19:17:40.743Z,22.90
2018-04-19T19:20:10.680Z,22.80
2018-04-19T19:22:36.927Z,22.80
2018-04-19T19:25:03.219Z,22.70
2018-04-19T19:27:30.335Z,22.70
2018-04-19T19:29:57.352Z,22.50
2018-04-19T19:32:23.616Z,22.40
2018-04-19T19:34:50.595Z,22.20
2018-04-19T19:37:16.870Z,22.10
2018-04-19T19:39:43.147Z,22.10
2018-04-19T19:42:09.461Z,22.10
2018-04-19T19:44:35.731Z,21.90
2018-04-19T19:47:02.058Z,21.80
2018-04-19T19:49:28.301Z,21.70
2018-04-19T19:51:54.571Z,21.60
2018-04-19T19:54:20.806Z,21.60
2018-04-19T19:56:47.117Z,21.60
2018-04-19T19:59:14.080Z,21.50
2018-04-19T20:01:41.388Z,21.50
2018-04-19T20:04:07.645Z,21.60
2018-04-19T20:06:34.654Z,21.60
2018-04-19T20:09:00.858Z,21.60
2018-04-19T20:11:27.115Z,21.60
2018-04-19T20:13:53.377Z,21.70
2018-04-19T20:16:20.397Z,21.70
2018-04-19T20:18:46.663Z,21.70
2018-04-19T20:21:13.626Z,21.70
2018-04-19T20:23:39.889Z,21.70
2018-04-19T20:26:06.127Z,21.70
2018-04-19T20:28:32.346Z,21.70
2018-04-19T20:30:58.550Z,21.80
2018-04-19T20:33:24.784Z,21.80
2018-04-19T20:35:51.058Z,21.80
2018-04-19T20:38:18.027Z,21.80
2018-04-19T20:40:44.214Z,21.70
2018-04-19T20:43:10.438Z,21.80
2018-04-19T20:45:36.679Z,21.80
2018-04-19T20:48:02.949Z,21.80
2018-04-19T20:50:29.190Z,21.80
2018-04-19T20:52:55.462Z,21.90
2018-04-19T20:55:21.730Z,21.80
2018-04-19T20:57:47.998Z,21.80
2018-04-19T21:00:14.210Z,21.70
2018-04-19T21:02:40.410Z,21.60
2018-04-19T21:05:06.711Z,21.50
2018-04-19T21:07:32.970Z,21.60
2018-04-19T21:09:59.295Z,21.40
2018-04-19T21:12:25.573Z,21.40
2018-04-19T21:14:51.826Z,21.10
2018-04-19T21:17:18.066Z,21.10
2018-04-19T21:19:53.988Z,20.90
2018-04-19T21:22:20.214Z,20.80
2018-04-19T21:24:46.506Z,20.80
2018-04-19T21:27:13.461Z,20.90
2018-04-19T21:29:39.727Z,20.80
2018-04-19T21:32:05.994Z,20.90
2018-04-19T21:34:33.001Z,20.80
2018-04-19T21:36:59.250Z,20.80
2018-04-19T21:39:25.583Z,20.80
2018-04-19T21:41:52.607Z,20.60
2018-04-19T21:44:18.802Z,20.60
2018-04-19T21:46:45.002Z,20.60
2018-04-19T21:49:11.982Z,20.70
2018-04-19T21:51:38.199Z,20.60
2018-04-19T21:54:04.438Z,20.70
2018-04-19T21:56:30.623Z,20.70
2018-04-19T21:58:57.594Z,20.30
2018-04-19T22:01:25.934Z,20.30
2018-04-19T22:03:52.139Z,20.40
2018-04-19T22:06:18.417Z,20.30
2018-04-19T22:08:44.620Z,20.40
2018-04-19T22:11:10.912Z,20.20
2018-04-19T22:13:37.147Z,20.20
2018-04-19T22:16:03.394Z,20.30
2018-04-19T22:18:30.713Z,20.00
2018-04-19T22:20:57.987Z,19.60
2018-04-19T22:23:43.858Z,19.60
2018-04-19T22:26:10.110Z,19.60
2018-04-19T22:28:36.462Z,19.50
2018-04-19T22:31:03.459Z,19.70
2018-04-19T22:33:29.659Z,19.60
2018-04-19T22:35:55.949Z,19.80
2018-04-19T22:38:23.235Z,19.90
2018-04-19T22:40:49.485Z,19.90
2018-04-19T22:43:15.766Z,19.70
2018-04-19T22:45:41.990Z,19.70
2018-04-19T22:48:08.237Z,19.50
2018-04-19T22:50:35.263Z,19.60
2018-04-19T22:53:01.467Z,19.50
2018-04-19T22:55:27.691Z,19.60
2018-04-19T22:57:53.959Z,19.50
2018-04-19T23:00:20.191Z,19.30
2018-04-19T23:02:46.422Z,18.70
2018-04-19T23:05:13.418Z,18.40
2018-04-19T23:07:39.631Z,18.40
2018-04-19T23:10:05.931Z,18.50
2018-04-19T23:12:32.252Z,18.50
2018-04-19T23:14:59.273Z,18.20
2018-04-19T23:17:25.534Z,18.10
2018-04-19T23:19:51.782Z,18.00
2018-04-19T23:22:35.928Z,18.00
2018-04-19T23:25:05.970Z,18.00
2018-04-19T23:27:32.204Z,17.90
2018-04-19T23:29:58.478Z,18.10
2018-04-19T23:32:25.512Z,17.90
2018-04-19T23:34:51.798Z,17.90
2018-04-19T23:37:18.057Z,17.80
2018-04-19T23:39:44.354Z,17.90
2018-04-19T23:42:10.631Z,17.50
2018-04-19T23:44:36.910Z,17.60
2018-04-19T23:47:03.183Z,17.70
2018-04-19T23:49:29.555Z,17.50
2018-04-19T23:51:55.819Z,17.70
2018-04-19T23:54:22.114Z,17.60
2018-04-19T23:56:48.403Z,17.60
2018-04-19T23:59:14.675Z,17.80
